createdAt,value
2019-05-18T00:00:42.819Z,43.30
2019-05-18T00:01:42.781Z,43.70
2019-05-18T00:02:42.768Z,44.20
2019-05-18T00:03:42.752Z,44.50
2019-05-18T00:04:42.735Z,44.40
2019-05-18T00:05:42.725Z,44.50
2019-05-18T00:06:42.733Z,45.40
2019-05-18T00:07:42.713Z,45.20
2019-05-18T00:08:42.695Z,44.50
2019-05-18T00:09:42.686Z,45.30
2019-05-18T00:10:42.698Z,45.00
2019-05-18T00:11:42.669Z,45.30
2019-05-18T00:12:42.649Z,45.80
2019-05-18T00:13:42.642Z,44.50
2019-05-18T00:14:42.628Z,46.50
2019-05-18T00:15:42.618Z,44.80
2019-05-18T00:16:42.640Z,46.40
2019-05-18T00:17:42.599Z,48.10
2019-05-18T00:18:42.603Z,47.80
2019-05-18T00:19:42.576Z,47.40
2019-05-18T00:20:42.572Z,47.30
2019-05-18T00:21:42.544Z,48.20
2019-05-18T00:22:42.570Z,48.30
2019-05-18T00:23:42.525Z,47.50
2019-05-18T00:24:42.528Z,48.00
2019-05-18T00:25:42.506Z,49.00
2019-05-18T00:26:42.499Z,48.10
2019-05-18T00:27:42.486Z,47.00
2019-05-18T00:28:42.483Z,48.10
2019-05-18T00:29:42.470Z,46.60
2019-05-18T00:30:42.445Z,48.80
2019-05-18T00:31:42.436Z,49.50
2019-05-18T00:32:42.431Z,48.50
2019-05-18T00:33:42.457Z,48.40
2019-05-18T00:34:42.408Z,48.70
2019-05-18T00:35:42.396Z,47.80
2019-05-18T00:36:42.381Z,49.20
2019-05-18T00:37:42.364Z,48.90
2019-05-18T00:38:42.355Z,49.00
2019-05-18T00:39:42.353Z,48.00
2019-05-18T00:40:42.336Z,49.30
2019-05-18T00:41:45.379Z,51.30
2019-05-18T00:42:42.315Z,50.00
2019-05-18T00:43:42.296Z,50.30
2019-05-18T00:44:42.296Z,51.00
2019-05-18T00:45:42.273Z,52.30
2019-05-18T00:46:42.282Z,50.80
2019-05-18T00:47:42.519Z,50.70
2019-05-18T00:48:42.246Z,51.40
2019-05-18T00:49:42.255Z,54.00
2019-05-18T00:50:42.236Z,53.60
2019-05-18T00:51:42.211Z,53.60
2019-05-18T00:52:42.196Z,53.00
2019-05-18T00:53:42.182Z,53.50
2019-05-18T00:54:42.178Z,52.20
2019-05-18T00:55:42.170Z,52.50
2019-05-18T00:56:42.187Z,54.20
2019-05-18T00:57:42.144Z,54.00
2019-05-18T00:58:42.126Z,53.50
2019-05-18T00:59:42.125Z,54.00
2019-05-18T01:00:42.141Z,53.30
2019-05-18T01:01:42.093Z,53.50
2019-05-18T01:02:42.086Z,53.20
2019-05-18T01:03:42.070Z,54.80
2019-05-18T01:04:42.060Z,53.90
2019-05-18T01:05:42.048Z,52.80
2019-05-18T01:06:42.039Z,51.70
2019-05-18T01:07:42.024Z,54.40
2019-05-18T01:08:42.024Z,55.50
2019-05-18T01:09:42.010Z,55.10
2019-05-18T01:10:42.015Z,56.60
2019-05-18T01:11:42.004Z,55.40
2019-05-18T01:12:41.972Z,55.90
2019-05-18T01:13:41.961Z,56.00
2019-05-18T01:14:41.954Z,56.70
2019-05-18T01:15:41.933Z,56.70
2019-05-18T01:16:41.937Z,54.20
2019-05-18T01:17:55.094Z,57.50
2019-05-18T01:18:42.912Z,56.80
2019-05-18T01:19:41.899Z,59.50
2019-05-18T01:20:41.891Z,57.20
2019-05-18T01:21:41.870Z,57.50
2019-05-18T01:22:41.854Z,57.80
2019-05-18T01:23:41.846Z,57.30
2019-05-18T01:24:41.841Z,58.10
2019-05-18T01:25:41.829Z,60.00
2019-05-18T01:26:41.820Z,58.10
2019-05-18T01:27:41.798Z,59.30
2019-05-18T01:28:41.797Z,59.90
2019-05-18T01:29:41.781Z,59.00
2019-05-18T01:30:41.765Z,59.70
2019-05-18T01:31:41.778Z,58.70
2019-05-18T01:32:41.750Z,59.50
2019-05-18T01:33:41.742Z,58.90
2019-05-18T01:34:41.736Z,61.80
2019-05-18T01:35:41.717Z,60.90
2019-05-18T01:36:41.701Z,62.90
2019-05-18T01:37:41.703Z,60.60
2019-05-18T01:38:41.690Z,63.30
2019-05-18T01:39:41.676Z,62.50
2019-05-18T01:40:41.655Z,62.50
2019-05-18T01:41:41.661Z,61.90
2019-05-18T01:42:41.635Z,61.80
2019-05-18T01:43:41.636Z,61.00
2019-05-18T01:44:41.621Z,62.30
2019-05-18T01:45:41.600Z,61.40
2019-05-18T01:46:41.589Z,62.30
2019-05-18T01:47:41.593Z,62.60
2019-05-18T01:48:41.595Z,63.60
2019-05-18T01:49:41.597Z,62.70
2019-05-18T01:50:41.549Z,64.90
2019-05-18T01:51:41.532Z,62.00
2019-05-18T01:52:41.528Z,63.10
2019-05-18T01:53:41.513Z,62.50
2019-05-18T01:54:41.538Z,65.50
2019-05-18T01:55:41.500Z,64.50
2019-05-18T01:56:41.493Z,63.30
2019-05-18T01:57:41.488Z,64.00
2019-05-18T01:58:41.463Z,64.10
2019-05-18T01:59:41.451Z,65.60
2019-05-18T02:00:41.444Z,62.90
2019-05-18T02:01:41.429Z,65.70
2019-05-18T02:02:41.416Z,65.50
2019-05-18T02:03:41.407Z,64.10
2019-05-18T02:04:41.399Z,61.40
2019-05-18T02:05:41.390Z,66.40
2019-05-18T02:06:41.402Z,66.20
2019-05-18T02:07:41.385Z,71.50
2019-05-18T02:08:41.350Z,68.90
2019-05-18T02:09:41.344Z,66.40
2019-05-18T02:10:41.331Z,67.40
2019-05-18T02:11:41.320Z,67.20
2019-05-18T02:12:41.325Z,68.80
2019-05-18T02:13:41.305Z,68.80
2019-05-18T02:14:41.284Z,72.90
2019-05-18T02:15:41.276Z,65.80
2019-05-18T02:16:41.269Z,68.30
2019-05-18T02:17:41.302Z,67.10
2019-05-18T02:18:41.241Z,74.80
2019-05-18T02:19:41.238Z,70.00
2019-05-18T02:20:41.224Z,68.90
2019-05-18T02:21:41.213Z,73.20
2019-05-18T02:22:41.208Z,72.80
2019-05-18T02:23:41.202Z,70.20
2019-05-18T02:24:41.178Z,68.90
2019-05-18T02:25:41.166Z,69.30
2019-05-18T02:26:41.160Z,74.70
2019-05-18T02:27:41.143Z,72.60
2019-05-18T02:28:41.147Z,75.80
2019-05-18T02:29:41.137Z,75.00
2019-05-18T02:30:41.141Z,77.30
2019-05-18T02:31:41.101Z,74.20
2019-05-18T02:32:41.090Z,71.00
2019-05-18T02:33:41.094Z,75.00
2019-05-18T02:34:41.072Z,76.90
2019-05-18T02:35:41.067Z,70.70
2019-05-18T02:36:41.058Z,75.40
2019-05-18T02:37:41.039Z,81.20
2019-05-18T02:38:41.032Z,81.40
2019-05-18T02:39:41.056Z,78.70
2019-05-18T02:40:41.009Z,84.10
2019-05-18T02:41:40.998Z,81.90
2019-05-18T02:42:40.987Z,83.70
2019-05-18T02:43:40.995Z,83.70
2019-05-18T02:44:40.996Z,83.60
2019-05-18T02:45:40.962Z,81.20
2019-05-18T02:46:40.945Z,77.40
2019-05-18T02:47:40.942Z,80.60
2019-05-18T02:48:49.308Z,81.70
2019-05-18T02:49:41.914Z,85.30
2019-05-18T02:50:40.920Z,83.70
2019-05-18T02:51:40.918Z,86.00
2019-05-18T02:52:40.881Z,81.10
2019-05-18T02:53:40.893Z,87.90
2019-05-18T02:54:40.860Z,79.80
2019-05-18T02:55:40.858Z,83.10
2019-05-18T02:56:40.837Z,85.70
2019-05-18T02:57:40.843Z,82.20
2019-05-18T02:58:40.825Z,85.40
2019-05-18T02:59:40.818Z,78.80
2019-05-18T03:00:40.821Z,82.60
2019-05-18T03:01:40.796Z,84.30
2019-05-18T03:02:40.769Z,82.40
2019-05-18T03:03:40.759Z,86.00
2019-05-18T03:04:40.754Z,91.10
2019-05-18T03:05:40.752Z,86.00
2019-05-18T03:06:40.748Z,89.50
2019-05-18T03:07:40.725Z,89.20
2019-05-18T03:08:40.705Z,102.60
2019-05-18T03:09:40.697Z,89.90
2019-05-18T03:10:40.687Z,90.70
2019-05-18T03:11:40.709Z,93.30
2019-05-18T03:12:40.667Z,95.20
2019-05-18T03:13:40.657Z,91.00
2019-05-18T03:14:40.646Z,96.40
2019-05-18T03:15:40.635Z,98.70
2019-05-18T03:16:40.622Z,94.40
2019-05-18T03:17:40.641Z,95.60
2019-05-18T03:18:40.597Z,96.30
2019-05-18T03:19:40.590Z,92.40
2019-05-18T03:20:40.581Z,98.70
2019-05-18T03:21:40.573Z,96.10
2019-05-18T03:22:40.560Z,102.10
2019-05-18T03:23:40.557Z,92.60
2019-05-18T03:24:40.537Z,97.10
2019-05-18T03:25:40.529Z,93.70
2019-05-18T03:26:40.514Z,98.60
2019-05-18T03:27:40.521Z,95.10
2019-05-18T03:28:40.509Z,102.40
2019-05-18T03:29:40.485Z,95.80
2019-05-18T03:30:40.475Z,97.20
2019-05-18T03:31:40.468Z,101.60
2019-05-18T03:32:40.459Z,105.00
2019-05-18T03:33:40.447Z,104.90
2019-05-18T03:34:40.436Z,100.90
2019-05-18T03:35:40.448Z,94.60
2019-05-18T03:36:40.412Z,103.10
2019-05-18T03:37:40.415Z,100.70
2019-05-18T03:38:40.398Z,100.60
2019-05-18T03:39:40.371Z,98.30
2019-05-18T03:40:40.368Z,102.50
2019-05-18T03:41:40.358Z,98.40
2019-05-18T03:42:40.338Z,102.40
2019-05-18T03:43:40.342Z,103.40
2019-05-18T03:44:40.318Z,103.40
2019-05-18T03:45:40.330Z,99.40
2019-05-18T03:46:40.321Z,104.80
2019-05-18T03:47:40.284Z,98.70
2019-05-18T03:48:40.276Z,101.10
2019-05-18T03:49:40.268Z,104.90
2019-05-18T03:50:40.255Z,103.10
2019-05-18T03:51:40.276Z,108.60
2019-05-18T03:52:40.264Z,107.00
2019-05-18T03:53:40.225Z,101.60
2019-05-18T03:54:40.227Z,108.90
2019-05-18T03:55:40.199Z,109.50
2019-05-18T03:56:40.192Z,100.00
2019-05-18T03:57:40.188Z,99.80
2019-05-18T03:58:40.163Z,107.80
2019-05-18T03:59:40.153Z,101.70
2019-05-18T04:00:40.140Z,99.00
2019-05-18T04:01:40.142Z,100.40
2019-05-18T04:02:40.204Z,103.00
2019-05-18T04:03:40.113Z,98.30
2019-05-18T04:04:40.097Z,95.70
2019-05-18T04:05:40.097Z,98.20
2019-05-18T04:06:40.074Z,92.30
2019-05-18T04:07:40.078Z,93.90
2019-05-18T04:08:40.058Z,100.40
2019-05-18T04:09:40.047Z,93.60
2019-05-18T04:10:40.051Z,94.30
2019-05-18T04:11:40.023Z,94.40
2019-05-18T04:12:40.014Z,95.10
2019-05-18T04:13:40.003Z,98.10
2019-05-18T04:14:39.999Z,92.70
2019-05-18T04:15:39.980Z,93.90
2019-05-18T04:16:39.981Z,92.70
2019-05-18T04:17:39.957Z,93.70
2019-05-18T04:18:39.962Z,96.90
2019-05-18T04:19:46.223Z,93.10
2019-05-18T04:20:40.915Z,97.40
2019-05-18T04:21:39.950Z,99.00
2019-05-18T04:22:39.906Z,95.20
2019-05-18T04:23:39.892Z,93.60
2019-05-18T04:24:39.880Z,94.10
2019-05-18T04:25:43.567Z,89.20
2019-05-18T04:26:39.848Z,94.90
2019-05-18T04:27:39.850Z,92.30
2019-05-18T04:28:39.831Z,95.30
2019-05-18T04:29:39.822Z,99.30
2019-05-18T04:30:39.819Z,95.10
2019-05-18T04:31:39.829Z,91.60
2019-05-18T04:32:39.817Z,98.60
2019-05-18T04:33:39.769Z,95.00
2019-05-18T04:34:39.770Z,99.10
2019-05-18T04:35:39.772Z,90.90
2019-05-18T04:36:39.788Z,97.60
2019-05-18T04:37:39.730Z,92.90
2019-05-18T04:38:39.719Z,95.00
2019-05-18T04:39:39.710Z,93.70
2019-05-18T04:40:39.693Z,95.90
2019-05-18T04:41:39.699Z,98.80
2019-05-18T04:42:39.682Z,90.40
2019-05-18T04:43:39.674Z,92.40
2019-05-18T04:44:39.657Z,89.60
2019-05-18T04:45:39.641Z,88.30
2019-05-18T04:46:39.651Z,93.50
2019-05-18T04:47:39.616Z,94.30
2019-05-18T04:48:39.599Z,87.40
2019-05-18T04:49:39.592Z,91.40
2019-05-18T04:50:39.592Z,89.60
2019-05-18T04:51:39.571Z,90.50
2019-05-18T04:52:39.566Z,91.00
2019-05-18T04:53:39.544Z,88.00
2019-05-18T04:54:39.561Z,87.90
2019-05-18T04:55:39.526Z,96.30
2019-05-18T04:56:42.848Z,87.50
2019-05-18T04:57:39.519Z,92.80
2019-05-18T04:58:39.492Z,90.30
2019-05-18T04:59:39.477Z,89.00
2019-05-18T05:00:39.471Z,93.00
2019-05-18T05:01:39.464Z,86.50
2019-05-18T05:02:39.469Z,88.10
2019-05-18T05:03:39.438Z,82.90
2019-05-18T05:04:39.444Z,83.50
2019-05-18T05:05:39.418Z,82.60
2019-05-18T05:06:39.398Z,86.80
2019-05-18T05:07:39.394Z,82.50
2019-05-18T05:08:39.389Z,75.80
2019-05-18T05:09:39.379Z,79.20
2019-05-18T05:10:39.353Z,77.40
2019-05-18T05:11:39.347Z,78.50
2019-05-18T05:12:39.335Z,76.80
2019-05-18T05:13:39.351Z,75.60
2019-05-18T05:14:39.311Z,75.40
2019-05-18T05:15:39.297Z,71.30
2019-05-18T05:16:39.291Z,74.70
2019-05-18T05:17:39.296Z,74.10
2019-05-18T05:18:39.271Z,69.90
2019-05-18T05:19:39.255Z,72.70
2019-05-18T05:20:39.249Z,70.00
2019-05-18T05:21:39.243Z,68.10
2019-05-18T05:22:39.234Z,68.50
2019-05-18T05:23:39.223Z,66.50
2019-05-18T05:24:39.199Z,66.20
2019-05-18T05:25:39.186Z,65.20
2019-05-18T05:26:39.852Z,64.80
2019-05-18T05:27:39.168Z,64.60
2019-05-18T05:28:39.171Z,61.90
2019-05-18T05:29:39.149Z,59.10
2019-05-18T05:30:39.150Z,58.50
2019-05-18T05:31:39.121Z,56.70
2019-05-18T05:32:39.110Z,57.60
2019-05-18T05:33:39.117Z,55.50
2019-05-18T05:34:39.102Z,56.80
2019-05-18T05:35:39.084Z,55.40
2019-05-18T05:36:39.074Z,56.30
2019-05-18T05:37:39.058Z,55.00
2019-05-18T05:38:39.052Z,56.00
2019-05-18T05:39:39.048Z,53.30
2019-05-18T05:40:39.062Z,51.90
2019-05-18T05:41:39.018Z,52.40
2019-05-18T05:42:39.007Z,53.40
2019-05-18T05:43:38.990Z,54.50
2019-05-18T05:44:38.979Z,51.40
2019-05-18T05:45:38.983Z,51.50
2019-05-18T05:46:38.968Z,52.60
2019-05-18T05:47:38.952Z,50.60
2019-05-18T05:48:38.936Z,51.80
2019-05-18T05:49:38.923Z,49.10
2019-05-18T05:50:38.918Z,48.40
2019-05-18T05:51:38.914Z,47.90
2019-05-18T05:52:38.925Z,48.00
2019-05-18T05:53:38.894Z,45.30
2019-05-18T05:54:38.874Z,45.80
2019-05-18T05:55:38.857Z,47.40
2019-05-18T05:56:38.858Z,45.10
2019-05-18T05:57:38.838Z,45.50
2019-05-18T05:58:38.836Z,44.70
2019-05-18T05:59:38.815Z,45.00
2019-05-18T06:00:38.807Z,43.40
2019-05-18T06:01:38.831Z,43.60
2019-05-18T06:02:38.789Z,40.30
2019-05-18T06:03:38.768Z,41.50
2019-05-18T06:04:38.764Z,40.30
2019-05-18T06:05:38.752Z,40.60
2019-05-18T06:06:38.755Z,40.90
2019-05-18T06:07:38.740Z,41.30
2019-05-18T06:08:38.715Z,39.70
2019-05-18T06:09:38.715Z,39.30
2019-05-18T06:10:38.697Z,39.40
2019-05-18T06:11:38.716Z,38.70
2019-05-18T06:12:38.673Z,39.90
2019-05-18T06:13:38.660Z,36.10
2019-05-18T06:14:38.657Z,36.50
2019-05-18T06:15:38.651Z,37.70
2019-05-18T06:16:38.656Z,38.60
2019-05-18T06:17:38.633Z,38.80
2019-05-18T06:18:38.621Z,37.40
2019-05-18T06:19:38.596Z,37.20
2019-05-18T06:20:50.408Z,37.40
2019-05-18T06:21:39.574Z,36.90
2019-05-18T06:22:38.572Z,35.60
2019-05-18T06:23:38.657Z,35.90
2019-05-18T06:24:38.542Z,34.60
2019-05-18T06:25:38.539Z,34.50
2019-05-18T06:26:38.521Z,35.20
2019-05-18T06:27:38.516Z,33.70
2019-05-18T06:28:38.511Z,33.10
2019-05-18T06:29:38.489Z,32.70
2019-05-18T06:30:38.484Z,30.90
2019-05-18T06:31:38.469Z,30.50
2019-05-18T06:32:38.457Z,31.80
2019-05-18T06:33:38.492Z,31.80
2019-05-18T06:34:38.443Z,31.80
2019-05-18T06:35:38.430Z,31.60
2019-05-18T06:36:38.420Z,31.10
2019-05-18T06:37:38.408Z,31.10
2019-05-18T06:38:38.415Z,30.60
2019-05-18T06:39:38.386Z,30.00
2019-05-18T06:40:38.454Z,29.20
2019-05-18T06:41:38.364Z,30.70
2019-05-18T06:42:38.356Z,31.40
2019-05-18T06:43:38.350Z,30.40
2019-05-18T06:44:38.343Z,30.50
2019-05-18T06:45:38.353Z,29.40
2019-05-18T06:46:38.307Z,28.80
2019-05-18T06:47:38.292Z,29.70
2019-05-18T06:48:38.285Z,29.20
2019-05-18T06:49:38.328Z,28.00
2019-05-18T06:50:38.269Z,27.50
2019-05-18T06:51:38.255Z,28.90
2019-05-18T06:52:38.249Z,27.70
2019-05-18T06:53:38.229Z,28.70
2019-05-18T06:54:38.228Z,28.10
2019-05-18T06:55:38.228Z,28.80
2019-05-18T06:56:38.189Z,27.50
2019-05-18T06:57:38.182Z,27.60
2019-05-18T06:58:38.170Z,27.70
2019-05-18T06:59:38.163Z,28.70
2019-05-18T07:00:38.160Z,27.90
2019-05-18T07:01:38.137Z,27.40
2019-05-18T07:02:38.125Z,27.40
2019-05-18T07:03:38.153Z,27.50
2019-05-18T07:04:38.161Z,26.60
2019-05-18T07:05:38.126Z,27.20
2019-05-18T07:06:38.083Z,26.90
2019-05-18T07:07:38.067Z,27.70
2019-05-18T07:08:38.058Z,26.50
2019-05-18T07:09:38.049Z,26.50
2019-05-18T07:10:38.046Z,25.90
2019-05-18T07:11:38.022Z,27.00
2019-05-18T07:12:38.022Z,26.20
2019-05-18T07:13:38.164Z,25.90
2019-05-18T07:14:37.986Z,27.30
2019-05-18T07:15:37.991Z,27.30
2019-05-18T07:16:37.978Z,25.20
2019-05-18T07:17:37.954Z,26.40
2019-05-18T07:18:37.947Z,27.30
2019-05-18T07:19:37.939Z,26.50
2019-05-18T07:20:37.927Z,27.00
2019-05-18T07:21:37.925Z,26.30
2019-05-18T07:22:37.906Z,26.20
2019-05-18T07:23:37.888Z,28.00
2019-05-18T07:24:37.883Z,26.20
2019-05-18T07:25:37.867Z,26.30
2019-05-18T07:26:37.870Z,26.80
2019-05-18T07:27:37.843Z,26.50
2019-05-18T07:28:37.856Z,26.80
2019-05-18T07:29:37.823Z,26.90
2019-05-18T07:30:37.816Z,27.30
2019-05-18T07:31:37.811Z,27.10
2019-05-18T07:32:37.794Z,27.30
2019-05-18T07:33:37.778Z,26.60
2019-05-18T07:34:37.775Z,25.90
2019-05-18T07:35:37.756Z,25.30
2019-05-18T07:36:37.751Z,24.50
2019-05-18T07:37:37.737Z,24.70
2019-05-18T07:38:37.727Z,24.90
2019-05-18T07:39:37.726Z,25.50
2019-05-18T07:40:37.708Z,26.30
2019-05-18T07:41:46.256Z,26.10
2019-05-18T07:42:38.676Z,25.40
2019-05-18T07:43:37.683Z,25.80
2019-05-18T07:44:37.657Z,25.20
2019-05-18T07:45:37.654Z,25.90
2019-05-18T07:46:37.646Z,25.80
2019-05-18T07:47:37.632Z,25.40
2019-05-18T07:48:37.653Z,26.30
2019-05-18T07:49:37.611Z,26.30
2019-05-18T07:50:37.591Z,26.10
2019-05-18T07:51:37.599Z,25.70
2019-05-18T07:52:37.577Z,25.40
2019-05-18T07:53:37.571Z,26.20
2019-05-18T07:54:37.556Z,26.00
2019-05-18T07:55:37.544Z,25.10
2019-05-18T07:56:37.564Z,25.30
2019-05-18T07:57:37.521Z,25.70
2019-05-18T07:58:37.502Z,26.60
2019-05-18T07:59:37.504Z,26.50
2019-05-18T08:00:37.489Z,25.20
2019-05-18T08:01:37.476Z,25.60
2019-05-18T08:02:37.477Z,26.00
2019-05-18T08:03:37.455Z,25.70
2019-05-18T08:04:39.772Z,25.70
2019-05-18T08:05:37.437Z,26.00
2019-05-18T08:06:37.420Z,25.20
2019-05-18T08:07:37.445Z,25.10
2019-05-18T08:08:37.394Z,34.50
2019-05-18T08:09:37.384Z,25.20
2019-05-18T08:10:37.419Z,26.40
2019-05-18T08:11:37.386Z,24.80
2019-05-18T08:12:37.431Z,25.20
2019-05-18T08:13:37.359Z,25.90
2019-05-18T08:14:37.334Z,24.80
2019-05-18T08:15:37.328Z,24.80
2019-05-18T08:16:37.312Z,24.40
2019-05-18T08:17:37.329Z,24.70
2019-05-18T08:18:37.294Z,24.30
2019-05-18T08:19:37.291Z,24.80
2019-05-18T08:20:37.267Z,24.70
2019-05-18T08:21:50.813Z,24.90
2019-05-18T08:22:38.292Z,25.00
2019-05-18T08:23:37.231Z,23.70
2019-05-18T08:24:37.232Z,24.10
2019-05-18T08:25:37.217Z,23.70
2019-05-18T08:26:37.206Z,23.60
2019-05-18T08:27:37.188Z,25.00
2019-05-18T08:28:37.205Z,23.60
2019-05-18T08:29:37.168Z,23.50
2019-05-18T08:30:37.158Z,23.60
2019-05-18T08:31:37.149Z,23.50
2019-05-18T08:32:37.146Z,24.00
2019-05-18T08:33:37.127Z,24.40
2019-05-18T08:34:37.113Z,24.70
2019-05-18T08:35:37.104Z,42.30
2019-05-18T08:36:37.090Z,26.10
2019-05-18T08:37:37.101Z,26.20
2019-05-18T08:38:37.082Z,23.80
2019-05-18T08:39:37.061Z,24.20
2019-05-18T08:40:37.064Z,23.90
2019-05-18T08:41:37.036Z,24.00
2019-05-18T08:42:37.027Z,23.70
2019-05-18T08:43:37.033Z,23.40
2019-05-18T08:44:37.011Z,23.80
2019-05-18T08:45:36.997Z,24.00
2019-05-18T08:46:36.986Z,23.80
2019-05-18T08:47:36.980Z,24.00
2019-05-18T08:48:36.968Z,24.40
2019-05-18T08:49:36.975Z,24.60
2019-05-18T08:50:36.985Z,24.40
2019-05-18T08:51:36.928Z,25.30
2019-05-18T08:52:36.919Z,24.20
2019-05-18T08:53:36.912Z,24.40
2019-05-18T08:54:36.957Z,24.60
2019-05-18T08:55:36.889Z,24.70
2019-05-18T08:56:36.888Z,25.20
2019-05-18T08:57:36.872Z,25.60
2019-05-18T08:58:36.861Z,25.00
2019-05-18T08:59:39.809Z,24.90
2019-05-18T09:00:36.918Z,25.70
2019-05-18T09:01:36.821Z,25.10
2019-05-18T09:02:36.810Z,25.00
2019-05-18T09:03:36.800Z,25.50
2019-05-18T09:04:36.796Z,24.80
2019-05-18T09:05:36.793Z,24.80
2019-05-18T09:06:36.778Z,24.80
2019-05-18T09:07:36.771Z,24.90
2019-05-18T09:08:36.746Z,25.40
2019-05-18T09:09:36.738Z,25.60
2019-05-18T09:10:36.741Z,26.60
2019-05-18T09:11:36.720Z,25.30
2019-05-18T09:12:36.723Z,26.00
2019-05-18T09:13:36.694Z,25.10
2019-05-18T09:14:36.683Z,26.50
2019-05-18T09:15:36.703Z,25.00
2019-05-18T09:16:36.665Z,26.00
2019-05-18T09:17:36.665Z,25.30
2019-05-18T09:18:36.649Z,25.60
2019-05-18T09:19:36.667Z,25.30
2019-05-18T09:20:36.637Z,26.20
2019-05-18T09:21:36.627Z,25.70
2019-05-18T09:22:36.612Z,25.00
2019-05-18T09:23:36.599Z,25.50
2019-05-18T09:24:36.585Z,25.90
2019-05-18T09:25:36.571Z,26.00
2019-05-18T09:26:36.576Z,25.20
2019-05-18T09:27:36.559Z,25.20
2019-05-18T09:28:36.542Z,25.60
2019-05-18T09:29:36.534Z,25.50
2019-05-18T09:30:36.524Z,25.20
2019-05-18T09:31:36.524Z,25.40
2019-05-18T09:32:36.502Z,24.80
2019-05-18T09:33:36.490Z,24.50
2019-05-18T09:34:36.491Z,24.50
2019-05-18T09:35:36.473Z,24.20
2019-05-18T09:36:36.489Z,24.60
2019-05-18T09:37:36.467Z,23.80
2019-05-18T09:38:36.445Z,23.30
2019-05-18T09:39:36.429Z,24.10
2019-05-18T09:40:36.422Z,23.60
2019-05-18T09:41:36.415Z,24.30
2019-05-18T09:42:36.438Z,23.20
2019-05-18T09:43:36.392Z,23.10
2019-05-18T09:44:36.379Z,23.20
2019-05-18T09:45:36.372Z,23.00
2019-05-18T09:46:36.419Z,24.30
2019-05-18T09:47:36.348Z,24.70
2019-05-18T09:48:36.349Z,24.00
2019-05-18T09:49:36.353Z,24.50
2019-05-18T09:50:36.320Z,24.60
2019-05-18T09:51:36.310Z,22.70
2019-05-18T09:52:44.920Z,23.00
2019-05-18T09:53:50.467Z,23.10
2019-05-18T09:54:37.278Z,22.90
2019-05-18T09:55:36.275Z,24.00
2019-05-18T09:56:36.252Z,23.60
2019-05-18T09:57:36.251Z,23.90
2019-05-18T09:58:36.263Z,23.70
2019-05-18T09:59:36.228Z,23.40
2019-05-18T10:00:38.988Z,22.80
2019-05-18T10:01:36.201Z,23.10
2019-05-18T10:02:36.194Z,22.80
2019-05-18T10:03:36.181Z,21.50
2019-05-18T10:04:36.211Z,21.90
2019-05-18T10:05:36.169Z,21.50
2019-05-18T10:06:36.163Z,22.20
2019-05-18T10:07:36.150Z,21.30
2019-05-18T10:08:36.135Z,21.90
2019-05-18T10:09:39.249Z,21.70
2019-05-18T10:10:36.129Z,21.40
2019-05-18T10:11:38.564Z,20.50
2019-05-18T10:12:36.112Z,21.10
2019-05-18T10:13:36.090Z,21.50
2019-05-18T10:14:36.073Z,22.90
2019-05-18T10:15:36.063Z,24.40
2019-05-18T10:16:36.067Z,21.20
2019-05-18T10:17:36.084Z,20.30
2019-05-18T10:18:36.033Z,20.10
2019-05-18T10:19:36.016Z,20.60
2019-05-18T10:20:36.022Z,21.50
2019-05-18T10:21:36.002Z,20.90
2019-05-18T10:22:36.016Z,20.70
2019-05-18T10:23:35.986Z,21.70
2019-05-18T10:24:35.971Z,20.80
2019-05-18T10:25:35.986Z,21.10
2019-05-18T10:26:35.958Z,22.00
2019-05-18T10:27:35.945Z,22.20
2019-05-18T10:28:35.943Z,22.90
2019-05-18T10:29:35.929Z,21.40
2019-05-18T10:30:35.906Z,22.50
2019-05-18T10:31:35.900Z,21.40
2019-05-18T10:32:35.885Z,22.20
2019-05-18T10:33:35.897Z,21.60
2019-05-18T10:34:35.865Z,22.70
2019-05-18T10:35:35.865Z,22.30
2019-05-18T10:36:35.851Z,21.80
2019-05-18T10:37:35.839Z,22.50
2019-05-18T10:38:35.831Z,22.20
2019-05-18T10:39:38.609Z,22.80
2019-05-18T10:40:35.799Z,23.10
2019-05-18T10:41:35.801Z,22.70
2019-05-18T10:42:35.781Z,23.20
2019-05-18T10:43:35.776Z,22.80
2019-05-18T10:44:35.768Z,23.30
2019-05-18T10:45:35.760Z,22.70
2019-05-18T10:46:35.739Z,22.40
2019-05-18T10:47:35.729Z,24.20
2019-05-18T10:48:35.729Z,22.90
2019-05-18T10:49:35.756Z,23.30
2019-05-18T10:50:35.702Z,22.70
2019-05-18T10:51:35.688Z,22.30
2019-05-18T10:52:35.685Z,23.70
2019-05-18T10:53:35.673Z,23.40
2019-05-18T10:54:35.686Z,23.10
2019-05-18T10:55:35.663Z,23.70
2019-05-18T10:56:35.638Z,23.20
2019-05-18T10:57:35.626Z,23.60
2019-05-18T10:58:35.654Z,23.20
2019-05-18T10:59:35.613Z,22.70
2019-05-18T11:00:35.608Z,22.70
2019-05-18T11:01:35.589Z,23.00
2019-05-18T11:02:35.616Z,23.40
2019-05-18T11:03:35.571Z,22.80
2019-05-18T11:04:35.574Z,23.10
2019-05-18T11:05:35.551Z,22.50
2019-05-18T11:06:35.557Z,23.10
2019-05-18T11:07:35.538Z,22.80
2019-05-18T11:08:38.264Z,22.90
2019-05-18T11:09:35.522Z,22.70
2019-05-18T11:10:35.540Z,23.40
2019-05-18T11:11:35.488Z,22.40
2019-05-18T11:12:35.475Z,22.50
2019-05-18T11:13:35.466Z,22.00
2019-05-18T11:14:35.452Z,22.00
2019-05-18T11:15:35.448Z,21.90
2019-05-18T11:16:35.464Z,22.60
2019-05-18T11:17:35.426Z,21.90
2019-05-18T11:18:35.417Z,22.60
2019-05-18T11:19:35.409Z,22.70
2019-05-18T11:20:35.423Z,23.40
2019-05-18T11:21:35.396Z,22.20
2019-05-18T11:22:35.391Z,23.10
2019-05-18T11:23:43.285Z,22.00
2019-05-18T11:24:36.356Z,22.50
2019-05-18T11:25:35.344Z,22.40
2019-05-18T11:26:35.339Z,22.10
2019-05-18T11:27:35.331Z,22.50
2019-05-18T11:28:35.326Z,21.80
2019-05-18T11:29:35.363Z,22.00
2019-05-18T11:30:35.302Z,22.10
2019-05-18T11:31:35.314Z,22.30
2019-05-18T11:32:35.291Z,21.80
2019-05-18T11:33:35.264Z,22.00
2019-05-18T11:34:35.250Z,22.20
2019-05-18T11:35:35.247Z,22.20
2019-05-18T11:36:35.233Z,22.60
2019-05-18T11:37:35.234Z,21.90
2019-05-18T11:38:35.222Z,22.10
2019-05-18T11:39:35.227Z,21.80
2019-05-18T11:40:35.187Z,21.80
2019-05-18T11:41:35.192Z,21.80
2019-05-18T11:42:35.197Z,21.60
2019-05-18T11:43:35.160Z,21.80
2019-05-18T11:44:35.159Z,22.10
2019-05-18T11:45:35.137Z,21.70
2019-05-18T11:46:35.127Z,22.70
2019-05-18T11:47:35.121Z,22.30
2019-05-18T11:48:35.127Z,21.70
2019-05-18T11:49:35.204Z,22.00
2019-05-18T11:50:35.090Z,22.20
2019-05-18T11:51:35.076Z,21.80
2019-05-18T11:52:35.071Z,22.90
2019-05-18T11:53:35.073Z,22.70
2019-05-18T11:54:35.046Z,22.70
2019-05-18T11:55:35.044Z,22.80
2019-05-18T11:56:35.043Z,21.70
2019-05-18T11:57:35.020Z,23.00
2019-05-18T11:58:35.022Z,22.40
2019-05-18T11:59:35.005Z,22.10
2019-05-18T12:00:34.994Z,21.30
2019-05-18T12:01:34.987Z,21.50
2019-05-18T12:02:34.971Z,22.10
2019-05-18T12:03:34.960Z,21.30
2019-05-18T12:04:35.019Z,21.10
2019-05-18T12:05:34.937Z,21.20
2019-05-18T12:06:34.936Z,22.10
2019-05-18T12:07:34.932Z,21.70
2019-05-18T12:08:34.993Z,20.80
2019-05-18T12:09:34.899Z,20.60
2019-05-18T12:10:34.892Z,21.40
2019-05-18T12:11:34.878Z,21.50
2019-05-18T12:12:34.858Z,20.40
2019-05-18T12:13:34.847Z,20.30
2019-05-18T12:14:34.851Z,20.60
2019-05-18T12:15:34.834Z,20.60
2019-05-18T12:16:34.822Z,20.60
2019-05-18T12:17:34.814Z,20.10
2019-05-18T12:18:34.795Z,19.30
2019-05-18T12:19:34.818Z,20.30
2019-05-18T12:20:34.788Z,19.40
2019-05-18T12:21:34.772Z,19.90
2019-05-18T12:22:34.759Z,20.00
2019-05-18T12:23:34.744Z,20.10
2019-05-18T12:24:34.766Z,20.20
2019-05-18T12:25:34.777Z,19.90
2019-05-18T12:26:34.718Z,20.10
2019-05-18T12:27:34.707Z,21.50
2019-05-18T12:28:34.695Z,20.90
2019-05-18T12:29:34.706Z,21.00
2019-05-18T12:30:34.702Z,20.30
2019-05-18T12:31:34.666Z,21.60
2019-05-18T12:32:34.657Z,20.90
2019-05-18T12:33:34.679Z,20.70
2019-05-18T12:34:34.633Z,20.90
2019-05-18T12:35:34.625Z,20.70
2019-05-18T12:36:34.643Z,20.60
2019-05-18T12:37:34.604Z,20.50
2019-05-18T12:38:34.605Z,20.50
2019-05-18T12:39:34.588Z,20.10
2019-05-18T12:40:34.589Z,20.20
2019-05-18T12:41:34.570Z,20.90
2019-05-18T12:42:34.582Z,20.50
2019-05-18T12:43:34.554Z,20.80
2019-05-18T12:44:34.547Z,20.00
2019-05-18T12:45:34.533Z,20.50
2019-05-18T12:46:34.519Z,20.10
2019-05-18T12:47:34.503Z,20.90
2019-05-18T12:48:34.537Z,19.90
2019-05-18T12:49:34.501Z,20.10
2019-05-18T12:50:34.473Z,21.10
2019-05-18T12:51:34.456Z,23.40